createdAt,value
2023-05-17T00:01:56.794Z,1.53
2023-05-17T00:04:27.965Z,1.90
2023-05-17T00:06:58.986Z,1.60
2023-05-17T00:09:29.961Z,1.83
2023-05-17T00:12:00.869Z,1.40
2023-05-17T00:14:31.811Z,1.70
2023-05-17T00:17:02.773Z,1.57
2023-05-17T00:19:33.758Z,1.80
2023-05-17T00:22:04.920Z,1.53
2023-05-17T00:24:35.858Z,1.80
2023-05-17T00:27:06.870Z,2.23
2023-05-17T00:29:37.835Z,1.23
2023-05-17T00:32:08.780Z,1.93
2023-05-17T00:34:39.830Z,1.70
2023-05-17T00:37:10.854Z,2.03
2023-05-17T00:39:41.909Z,1.87
2023-05-17T00:42:13.359Z,2.00
2023-05-17T00:44:44.389Z,2.07
2023-05-17T00:47:15.535Z,2.03
2023-05-17T00:49:46.977Z,1.90
2023-05-17T00:52:17.909Z,1.77
2023-05-17T00:54:50.831Z,2.33
2023-05-17T00:57:21.975Z,2.03
2023-05-17T00:59:55.508Z,2.00
2023-05-17T01:02:26.492Z,1.90
2023-05-17T01:04:58.217Z,2.10
2023-05-17T01:07:29.210Z,1.87
2023-05-17T01:10:00.220Z,2.30
2023-05-17T01:12:56.958Z,2.33
2023-05-17T01:15:43.930Z,2.20
2023-05-17T01:19:06.760Z,2.13
2023-05-17T01:22:25.686Z,1.83
2023-05-17T01:25:29.220Z,2.03
2023-05-17T01:28:03.876Z,2.03
2023-05-17T01:30:36.957Z,1.90
2023-05-17T01:33:09.129Z,2.20
2023-05-17T01:35:40.417Z,2.27
2023-05-17T01:38:11.429Z,1.90
2023-05-17T01:41:16.771Z,2.40
2023-05-17T01:43:53.698Z,2.00
2023-05-17T01:46:34.461Z,2.10
2023-05-17T01:49:37.574Z,2.20
2023-05-17T01:52:14.143Z,2.10
2023-05-17T01:54:56.634Z,2.30
2023-05-17T01:57:33.771Z,2.53
2023-05-17T02:00:11.780Z,2.30
2023-05-17T02:02:43.378Z,1.87
2023-05-17T02:05:14.425Z,2.40
2023-05-17T02:07:45.372Z,2.47
2023-05-17T02:10:16.370Z,2.13
2023-05-17T02:12:47.318Z,2.23
2023-05-17T02:15:18.319Z,2.00
2023-05-17T02:17:49.853Z,2.53
2023-05-17T02:20:21.128Z,2.00
2023-05-17T02:22:52.068Z,2.00
2023-05-17T02:25:22.999Z,2.17
2023-05-17T02:27:53.989Z,2.30
2023-05-17T02:30:25.002Z,2.20
2023-05-17T02:32:56.974Z,2.40
2023-05-17T02:35:28.308Z,1.97
2023-05-17T02:38:00.914Z,2.40
2023-05-17T02:40:31.887Z,2.17
2023-05-17T02:43:02.842Z,2.27
2023-05-17T02:45:33.787Z,2.03
2023-05-17T02:48:04.957Z,2.57
2023-05-17T02:50:35.980Z,2.07
2023-05-17T02:53:06.948Z,2.27
2023-05-17T02:55:37.892Z,2.20
2023-05-17T02:58:09.126Z,2.50
2023-05-17T03:00:40.081Z,2.60
2023-05-17T03:03:11.028Z,2.80
2023-05-17T03:05:42.077Z,2.40
2023-05-17T03:08:13.011Z,2.27
2023-05-17T03:10:43.985Z,2.83
2023-05-17T03:13:14.893Z,2.60
2023-05-17T03:15:45.914Z,2.40
2023-05-17T03:18:17.002Z,2.53
2023-05-17T03:20:47.999Z,2.77
2023-05-17T03:23:18.995Z,2.33
2023-05-17T03:25:50.016Z,2.87
2023-05-17T03:28:21.102Z,2.50
2023-05-17T03:30:52.581Z,2.30
2023-05-17T03:33:23.655Z,2.27
2023-05-17T03:35:54.601Z,2.67
2023-05-17T03:38:25.592Z,2.90
2023-05-17T03:40:56.818Z,2.57
2023-05-17T03:43:28.798Z,2.60
2023-05-17T03:45:59.983Z,2.90
2023-05-17T03:48:31.743Z,2.20
2023-05-17T03:51:04.196Z,3.40
2023-05-17T03:53:41.156Z,2.73
2023-05-17T03:56:12.736Z,3.00
2023-05-17T03:58:43.643Z,2.40
2023-05-17T04:01:14.793Z,2.60
2023-05-17T04:03:46.672Z,2.47
2023-05-17T04:06:17.786Z,3.33
2023-05-17T04:08:49.407Z,2.40
2023-05-17T04:11:23.883Z,2.20
2023-05-17T04:13:57.208Z,2.80
2023-05-17T04:16:28.598Z,2.60
2023-05-17T04:19:02.932Z,2.23
2023-05-17T04:21:33.923Z,2.70
2023-05-17T04:24:05.222Z,2.37
2023-05-17T04:26:36.408Z,2.30
2023-05-17T04:29:07.694Z,2.83
2023-05-17T04:31:38.601Z,2.33
2023-05-17T04:34:10.118Z,2.50
2023-05-17T04:36:41.205Z,2.80
2023-05-17T04:39:12.162Z,2.43
2023-05-17T04:41:43.274Z,3.10
2023-05-17T04:44:14.248Z,3.00
2023-05-17T04:46:45.973Z,2.80
2023-05-17T04:49:17.014Z,2.17
2023-05-17T04:51:48.001Z,2.87
2023-05-17T04:54:18.929Z,2.73
2023-05-17T04:56:49.882Z,2.90
2023-05-17T04:59:20.961Z,2.60
2023-05-17T05:01:51.945Z,2.73
2023-05-17T05:04:24.547Z,3.17
2023-05-17T05:06:55.549Z,2.70
2023-05-17T05:09:26.478Z,2.80
2023-05-17T05:11:57.539Z,2.53
2023-05-17T05:14:28.450Z,2.50
2023-05-17T05:16:59.400Z,2.50
2023-05-17T05:19:30.401Z,2.70
2023-05-17T05:22:01.445Z,2.70
2023-05-17T05:24:32.429Z,2.80
2023-05-17T05:27:06.204Z,2.50
2023-05-17T05:29:37.952Z,3.20
2023-05-17T05:32:09.269Z,2.60
2023-05-17T05:34:40.561Z,2.63
2023-05-17T05:37:11.568Z,2.80
2023-05-17T05:39:42.524Z,3.17
2023-05-17T05:42:13.584Z,2.73
2023-05-17T05:44:44.561Z,2.50
2023-05-17T05:47:15.881Z,2.77
2023-05-17T05:49:46.881Z,2.83
2023-05-17T05:52:17.860Z,3.10
2023-05-17T05:54:49.250Z,2.60
2023-05-17T05:57:20.232Z,2.77
2023-05-17T05:59:51.245Z,3.10
2023-05-17T06:02:23.460Z,2.93
2023-05-17T06:04:54.416Z,2.63
2023-05-17T06:07:25.463Z,2.93
2023-05-17T06:09:56.351Z,2.93
2023-05-17T06:12:27.368Z,2.70
2023-05-17T06:14:58.356Z,2.50
2023-05-17T06:17:29.519Z,2.93
2023-05-17T06:20:00.905Z,2.50
2023-05-17T06:22:31.967Z,3.23
2023-05-17T06:25:02.949Z,2.30
2023-05-17T06:27:33.925Z,2.63
2023-05-17T06:30:07.460Z,2.90
2023-05-17T06:32:38.670Z,2.90
2023-05-17T06:35:10.744Z,3.70
2023-05-17T06:37:41.637Z,3.03
2023-05-17T06:40:16.438Z,2.63
2023-05-17T06:42:48.012Z,2.80
2023-05-17T06:45:19.010Z,2.50
2023-05-17T06:47:50.066Z,2.60
2023-05-17T06:50:21.079Z,2.57
2023-05-17T06:52:51.998Z,2.83
2023-05-17T06:55:22.936Z,2.70
2023-05-17T06:57:53.982Z,2.50
2023-05-17T07:00:25.146Z,2.30
2023-05-17T07:02:56.516Z,2.53
2023-05-17T07:05:29.283Z,2.77
2023-05-17T07:08:00.849Z,2.70
2023-05-17T07:10:31.941Z,2.97
2023-05-17T07:13:02.908Z,2.80
2023-05-17T07:15:33.831Z,2.50
2023-05-17T07:18:05.021Z,3.07
2023-05-17T07:20:36.134Z,2.53
2023-05-17T07:23:07.908Z,2.33
2023-05-17T07:25:40.523Z,2.60
2023-05-17T07:28:11.734Z,2.50
2023-05-17T07:30:42.794Z,3.10
2023-05-17T07:33:13.813Z,2.87
2023-05-17T07:35:44.819Z,2.93
2023-05-17T07:38:15.753Z,4.03
2023-05-17T07:40:46.679Z,3.23
2023-05-17T07:43:17.609Z,3.43
2023-05-17T07:45:48.716Z,2.63
2023-05-17T07:48:19.930Z,2.50
2023-05-17T07:50:51.106Z,3.73
2023-05-17T07:53:22.187Z,3.13
2023-05-17T07:55:53.207Z,3.57
2023-05-17T07:58:24.139Z,2.70
2023-05-17T08:00:55.062Z,3.10
2023-05-17T08:03:28.465Z,3.30
2023-05-17T08:05:59.477Z,3.33
2023-05-17T08:08:30.447Z,2.90
2023-05-17T08:11:01.352Z,3.20
2023-05-17T08:13:32.280Z,2.90
2023-05-17T08:16:13.711Z,4.07
2023-05-17T08:18:45.586Z,3.20
2023-05-17T08:21:17.106Z,3.10
2023-05-17T08:23:48.043Z,2.90
2023-05-17T08:26:19.053Z,2.80
2023-05-17T08:28:50.042Z,3.93
2023-05-17T08:31:21.035Z,3.13
2023-05-17T08:33:52.030Z,3.70
2023-05-17T08:36:23.020Z,3.23
2023-05-17T08:38:53.966Z,3.00
2023-05-17T08:41:25.090Z,3.20
2023-05-17T08:43:57.105Z,3.07
2023-05-17T08:46:28.623Z,3.20
2023-05-17T08:49:02.216Z,3.17
2023-05-17T08:51:33.861Z,3.90
2023-05-17T08:54:08.412Z,4.53
2023-05-17T08:56:42.700Z,3.10
2023-05-17T08:59:14.175Z,3.00
2023-05-17T09:01:49.694Z,3.90
2023-05-17T09:04:21.795Z,3.20
2023-05-17T09:06:53.000Z,2.90
2023-05-17T09:09:24.132Z,3.03
2023-05-17T09:11:55.335Z,3.03
2023-05-17T09:14:36.392Z,2.33
2023-05-17T09:17:07.452Z,3.20
2023-05-17T09:19:48.505Z,3.70
2023-05-17T09:22:19.831Z,3.13
2023-05-17T09:24:51.341Z,3.20
2023-05-17T09:27:23.901Z,3.20
2023-05-17T09:29:55.066Z,3.20
2023-05-17T09:32:26.390Z,3.00
2023-05-17T09:34:59.889Z,3.10
2023-05-17T09:37:31.005Z,3.00
2023-05-17T09:40:02.045Z,2.50
2023-05-17T09:42:39.483Z,3.10
2023-05-17T09:45:10.560Z,3.07
2023-05-17T09:47:41.604Z,2.53
2023-05-17T09:50:23.839Z,3.30
2023-05-17T09:52:56.538Z,3.70
2023-05-17T09:55:28.618Z,3.20
2023-05-17T09:58:04.055Z,3.93
2023-05-17T10:00:35.453Z,3.87
2023-05-17T10:03:07.207Z,2.97
2023-05-17T10:05:42.995Z,2.43
2023-05-17T10:08:15.160Z,3.17
2023-05-17T10:10:46.536Z,3.00
2023-05-17T10:13:24.873Z,2.70
2023-05-17T10:15:56.183Z,3.00
2023-05-17T10:18:29.312Z,3.03
2023-05-17T10:21:02.155Z,2.33
2023-05-17T10:23:33.994Z,3.07
2023-05-17T10:26:06.763Z,2.47
2023-05-17T10:28:37.930Z,3.40
2023-05-17T10:31:08.976Z,2.47
2023-05-17T10:33:40.591Z,2.80
2023-05-17T10:36:17.434Z,2.80
2023-05-17T10:38:48.535Z,2.80
2023-05-17T10:41:24.368Z,3.10
2023-05-17T10:43:56.479Z,2.57
2023-05-17T10:46:31.027Z,2.93
2023-05-17T10:49:02.633Z,2.43
2023-05-17T10:51:36.544Z,3.17
2023-05-17T10:54:14.183Z,2.73
2023-05-17T10:56:50.074Z,3.30
2023-05-17T10:59:28.114Z,3.93
2023-05-17T11:02:08.104Z,3.20
2023-05-17T11:04:44.709Z,3.00
2023-05-17T11:07:19.164Z,3.00
2023-05-17T11:09:56.602Z,2.90
2023-05-17T11:12:40.261Z,3.10
2023-05-17T11:15:13.703Z,2.93
2023-05-17T11:17:44.813Z,3.13
2023-05-17T11:20:16.979Z,2.77
2023-05-17T11:23:06.982Z,3.57
2023-05-17T11:25:40.573Z,2.77
2023-05-17T11:28:22.591Z,2.97
2023-05-17T11:31:01.301Z,2.80
2023-05-17T11:33:46.453Z,3.13
2023-05-17T11:36:22.930Z,3.00
2023-05-17T11:39:15.828Z,3.00
2023-05-17T11:41:55.728Z,2.70
2023-05-17T11:44:32.681Z,3.10
2023-05-17T11:47:11.550Z,2.73
2023-05-17T11:49:42.782Z,2.60
2023-05-17T11:52:17.013Z,3.10
2023-05-17T11:54:49.735Z,3.20
2023-05-17T11:57:22.749Z,3.00
2023-05-17T12:00:05.154Z,3.07
2023-05-17T12:02:36.510Z,2.73
2023-05-17T12:05:09.394Z,3.27
2023-05-17T12:07:40.767Z,3.07
2023-05-17T12:10:13.949Z,2.70
2023-05-17T12:12:45.404Z,2.83
2023-05-17T12:15:19.609Z,2.67
2023-05-17T12:17:51.971Z,3.00
2023-05-17T12:20:23.011Z,2.70
2023-05-17T12:22:55.651Z,3.17
2023-05-17T12:25:28.069Z,2.63
2023-05-17T12:28:22.782Z,3.10
2023-05-17T12:30:58.158Z,2.70
2023-05-17T12:33:36.336Z,2.70
2023-05-17T12:36:09.862Z,2.87
2023-05-17T12:38:42.865Z,2.67
2023-05-17T12:41:16.658Z,2.80
2023-05-17T12:43:47.618Z,3.57
2023-05-17T12:46:22.147Z,3.07
2023-05-17T12:48:54.888Z,2.93
2023-05-17T12:51:26.008Z,2.83
2023-05-17T12:54:01.465Z,3.00
2023-05-17T12:56:32.647Z,2.53
2023-05-17T12:59:17.319Z,2.77
2023-05-17T13:01:50.435Z,2.60
2023-05-17T13:04:29.372Z,2.90
2023-05-17T13:07:03.517Z,3.10
2023-05-17T13:09:36.060Z,3.07
2023-05-17T13:12:07.995Z,2.93
2023-05-17T13:14:46.271Z,2.83
2023-05-17T13:17:36.006Z,3.30
2023-05-17T13:20:10.493Z,3.20
2023-05-17T13:22:48.644Z,3.00
2023-05-17T13:25:20.488Z,3.10
2023-05-17T13:27:53.211Z,3.10
2023-05-17T13:30:24.349Z,3.00
2023-05-17T13:32:56.199Z,2.80
2023-05-17T13:35:27.191Z,2.93
2023-05-17T13:37:58.534Z,3.00
2023-05-17T13:40:29.656Z,2.90
2023-05-17T13:43:00.802Z,2.60
2023-05-17T13:45:31.786Z,2.07
2023-05-17T13:48:03.492Z,3.00
2023-05-17T13:50:35.006Z,3.00
2023-05-17T13:53:06.010Z,2.70
2023-05-17T13:55:39.572Z,3.20
2023-05-17T13:58:10.555Z,2.73
2023-05-17T14:00:44.128Z,3.30
2023-05-17T14:03:15.575Z,2.80
2023-05-17T14:05:49.813Z,2.77
2023-05-17T14:08:20.910Z,2.50
2023-05-17T14:10:51.904Z,3.27
2023-05-17T14:13:23.024Z,2.80
2023-05-17T14:15:53.949Z,3.00
2023-05-17T14:18:25.010Z,2.63
2023-05-17T14:20:56.107Z,2.90
2023-05-17T14:23:27.258Z,2.60
2023-05-17T14:25:58.172Z,2.43
2023-05-17T14:28:29.186Z,2.67
2023-05-17T14:31:00.151Z,3.50
2023-05-17T14:33:31.652Z,3.10
2023-05-17T14:36:04.104Z,3.50
2023-05-17T14:38:35.193Z,2.80
2023-05-17T14:41:06.820Z,2.87
2023-05-17T14:43:37.774Z,3.17
2023-05-17T14:46:08.765Z,2.70
2023-05-17T14:48:39.781Z,3.07
2023-05-17T14:51:10.755Z,3.30
2023-05-17T14:53:41.686Z,2.37
2023-05-17T14:56:12.820Z,3.53
2023-05-17T14:58:43.910Z,3.07
2023-05-17T15:01:15.446Z,3.17
2023-05-17T15:03:46.426Z,3.87
2023-05-17T15:06:17.492Z,2.73
2023-05-17T15:08:48.461Z,3.17
2023-05-17T15:11:20.162Z,2.90
2023-05-17T15:13:51.146Z,3.00
2023-05-17T15:16:23.010Z,2.60
2023-05-17T15:18:55.505Z,2.83
2023-05-17T15:21:28.384Z,3.10
2023-05-17T15:23:59.324Z,2.60
2023-05-17T15:26:30.267Z,3.90
2023-05-17T15:29:01.366Z,2.83
2023-05-17T15:31:32.786Z,3.40
2023-05-17T15:34:04.923Z,3.17
2023-05-17T15:36:36.575Z,3.00
2023-05-17T15:39:07.601Z,3.07
2023-05-17T15:41:39.850Z,3.00
2023-05-17T15:44:11.192Z,3.10
2023-05-17T15:46:42.384Z,3.50
2023-05-17T15:49:13.751Z,4.37
2023-05-17T15:51:45.394Z,3.17
2023-05-17T15:54:16.467Z,3.50
2023-05-17T15:56:47.550Z,3.13
2023-05-17T15:59:18.599Z,3.50
2023-05-17T16:01:49.857Z,3.20
2023-05-17T16:04:20.828Z,2.70
2023-05-17T16:06:52.142Z,3.23
2023-05-17T16:09:23.152Z,3.33
2023-05-17T16:11:54.166Z,2.77
2023-05-17T16:14:25.131Z,3.13
2023-05-17T16:16:56.157Z,3.20
2023-05-17T16:19:30.499Z,6.30
2023-05-17T16:22:01.978Z,3.27
2023-05-17T16:24:32.966Z,3.03
2023-05-17T16:27:07.162Z,4.00
2023-05-17T16:29:40.427Z,3.33
2023-05-17T16:32:11.679Z,2.97
2023-05-17T16:34:42.698Z,3.30
2023-05-17T16:37:13.666Z,3.60
2023-05-17T16:39:44.877Z,3.77
2023-05-17T16:42:15.863Z,2.90
2023-05-17T16:44:46.795Z,3.80
2023-05-17T16:47:17.887Z,3.80
2023-05-17T16:49:48.836Z,3.43
2023-05-17T16:52:21.512Z,3.03
2023-05-17T16:54:52.488Z,3.60
2023-05-17T16:57:23.432Z,3.40
2023-05-17T16:59:55.317Z,3.03
2023-05-17T17:02:27.606Z,3.90
2023-05-17T17:04:58.837Z,3.93
2023-05-17T17:07:29.877Z,4.83
2023-05-17T17:10:00.918Z,4.73
2023-05-17T17:12:31.905Z,3.80
2023-05-17T17:15:03.748Z,3.53
2023-05-17T17:17:36.276Z,3.23
2023-05-17T17:20:09.284Z,3.60
2023-05-17T17:22:41.507Z,3.23
2023-05-17T17:25:12.514Z,3.30
2023-05-17T17:27:44.181Z,3.10
2023-05-17T17:30:15.153Z,3.30
2023-05-17T17:32:46.368Z,3.50
2023-05-17T17:35:17.508Z,3.40
2023-05-17T17:37:48.584Z,3.63
2023-05-17T17:40:20.582Z,3.63
2023-05-17T17:42:51.555Z,3.70
2023-05-17T17:45:22.912Z,3.20
2023-05-17T17:47:53.992Z,3.83
2023-05-17T17:50:25.440Z,2.93
2023-05-17T17:52:56.748Z,4.00
2023-05-17T17:55:27.876Z,3.50
2023-05-17T17:57:58.874Z,3.30
2023-05-17T18:00:30.139Z,4.07
2023-05-17T18:03:01.496Z,3.57
2023-05-17T18:05:32.794Z,3.23
2023-05-17T18:08:03.903Z,3.20
2023-05-17T18:10:35.260Z,4.10
2023-05-17T18:13:06.920Z,3.00
2023-05-17T18:15:38.056Z,3.97
2023-05-17T18:18:09.048Z,3.97
2023-05-17T18:20:40.577Z,3.63
2023-05-17T18:23:11.814Z,3.83
2023-05-17T18:25:43.391Z,3.97
2023-05-17T18:28:14.661Z,3.37
2023-05-17T18:30:49.237Z,4.20
2023-05-17T18:33:20.506Z,3.63
2023-05-17T18:35:54.625Z,4.60
2023-05-17T18:38:25.822Z,4.50
2023-05-17T18:40:56.925Z,4.23
2023-05-17T18:43:33.690Z,4.33
2023-05-17T18:46:05.147Z,4.23
2023-05-17T18:48:37.175Z,4.57
2023-05-17T18:51:11.043Z,4.57
2023-05-17T18:53:42.540Z,4.67
2023-05-17T18:56:22.943Z,5.93
2023-05-17T18:58:54.732Z,6.40
2023-05-17T19:01:27.183Z,6.73
2023-05-17T19:03:58.617Z,7.40
2023-05-17T19:06:31.144Z,6.00
2023-05-17T19:09:02.372Z,6.40
2023-05-17T19:11:33.634Z,7.20
2023-05-17T19:14:07.681Z,7.80
2023-05-17T19:16:39.414Z,7.43
2023-05-17T19:19:10.847Z,7.53
2023-05-17T19:21:42.154Z,10.17
2023-05-17T19:24:13.209Z,17.30
2023-05-17T19:26:44.571Z,23.60
2023-05-17T19:29:15.807Z,27.77
2023-05-17T19:31:47.422Z,28.23
2023-05-17T19:34:18.816Z,24.10
2023-05-17T19:36:50.283Z,22.17
2023-05-17T19:39:21.726Z,18.73
2023-05-17T19:41:52.910Z,15.50
2023-05-17T19:44:24.250Z,13.17
2023-05-17T19:46:55.969Z,14.30
2023-05-17T19:49:27.274Z,15.33
2023-05-17T19:52:00.868Z,14.23
2023-05-17T19:54:31.981Z,12.80
2023-05-17T19:57:05.190Z,11.63
2023-05-17T19:59:36.493Z,11.10
2023-05-17T20:02:07.943Z,9.53
2023-05-17T20:04:39.053Z,8.23
2023-05-17T20:07:10.357Z,6.80
2023-05-17T20:09:41.908Z,8.27
2023-05-17T20:12:13.290Z,11.67
2023-05-17T20:14:44.421Z,15.47
2023-05-17T20:17:16.122Z,15.60
2023-05-17T20:19:47.800Z,19.53
2023-05-17T20:22:20.093Z,22.77
2023-05-17T20:24:55.797Z,24.33
2023-05-17T20:27:29.700Z,30.90
2023-05-17T20:30:01.991Z,35.90
2023-05-17T20:32:33.693Z,24.27
2023-05-17T20:35:08.511Z,20.23
2023-05-17T20:37:42.345Z,11.20
2023-05-17T20:40:13.817Z,14.50
2023-05-17T20:42:46.043Z,24.43
2023-05-17T20:45:18.205Z,44.27
2023-05-17T20:47:50.030Z,66.67
2023-05-17T20:50:21.925Z,99.03
2023-05-17T20:52:55.651Z,102.93
2023-05-17T20:55:27.304Z,101.77
2023-05-17T20:57:58.417Z,90.73
2023-05-17T21:00:30.318Z,90.87
2023-05-17T21:03:01.833Z,60.03
2023-05-17T21:05:36.331Z,64.00
2023-05-17T21:08:07.609Z,49.07
2023-05-17T21:10:42.887Z,29.80
2023-05-17T21:13:14.946Z,19.37
2023-05-17T21:15:47.156Z,16.33
2023-05-17T21:18:18.424Z,14.33
2023-05-17T21:20:51.688Z,12.70
2023-05-17T21:23:22.989Z,13.00
2023-05-17T21:25:54.644Z,12.33
2023-05-17T21:28:26.133Z,16.10
2023-05-17T21:30:57.771Z,15.00
2023-05-17T21:33:29.368Z,12.53
2023-05-17T21:36:00.301Z,11.37
2023-05-17T21:38:31.386Z,10.37
2023-05-17T21:41:02.362Z,13.83
2023-05-17T21:43:33.340Z,11.60
2023-05-17T21:46:04.431Z,10.53
2023-05-17T21:48:35.661Z,13.53
2023-05-17T21:51:06.659Z,18.70
2023-05-17T21:53:37.619Z,23.00
2023-05-17T21:56:08.658Z,18.00
2023-05-17T21:58:39.579Z,11.27
2023-05-17T22:01:10.737Z,12.10
2023-05-17T22:03:41.938Z,14.23
2023-05-17T22:06:12.931Z,16.17
2023-05-17T22:08:45.257Z,14.83
2023-05-17T22:11:18.211Z,14.80
2023-05-17T22:13:50.533Z,14.37
2023-05-17T22:16:25.631Z,14.47
2023-05-17T22:18:59.661Z,12.60
2023-05-17T22:21:31.961Z,12.73
2023-05-17T22:24:03.070Z,12.90
2023-05-17T22:26:34.052Z,15.57
2023-05-17T22:29:05.021Z,24.23
2023-05-17T22:31:38.012Z,29.50
2023-05-17T22:34:09.013Z,26.00
2023-05-17T22:36:42.363Z,20.00
2023-05-17T22:39:13.459Z,13.33
2023-05-17T22:41:44.547Z,13.30
2023-05-17T22:44:15.610Z,28.33
2023-05-17T22:46:46.769Z,40.00
2023-05-17T22:49:18.586Z,44.80
2023-05-17T22:51:49.557Z,37.70
2023-05-17T22:54:21.066Z,31.93
2023-05-17T22:56:52.160Z,22.00
2023-05-17T22:59:23.091Z,19.87
2023-05-17T23:01:54.087Z,12.13
2023-05-17T23:04:26.267Z,9.33
2023-05-17T23:07:04.191Z,9.97
2023-05-17T23:09:38.019Z,8.40
2023-05-17T23:12:14.019Z,11.03
2023-05-17T23:14:45.149Z,13.37
2023-05-17T23:17:16.332Z,15.03
2023-05-17T23:19:47.772Z,16.20
2023-05-17T23:22:18.752Z,15.63
2023-05-17T23:24:50.132Z,14.97
2023-05-17T23:27:22.078Z,13.93
2023-05-17T23:29:54.184Z,12.77
2023-05-17T23:32:25.177Z,10.13
2023-05-17T23:35:03.421Z,9.00
2023-05-17T23:37:34.785Z,8.20
2023-05-17T23:40:06.882Z,7.73
2023-05-17T23:42:38.028Z,7.73
2023-05-17T23:45:12.092Z,7.20
2023-05-17T23:47:43.219Z,8.20
2023-05-17T23:50:14.215Z,8.27
2023-05-17T23:52:45.269Z,8.67
2023-05-17T23:55:16.240Z,9.30
2023-05-17T23:57:47.367Z,9.23
